sensor_id;sensor_type;location;lat;lon;timestamp;temperature;humidity
44037;DHT22;62488;-37.670;-63.532;2022-08-03T00:01:05;8.90;99.90
44037;DHT22;62488;-37.670;-63.532;2022-08-03T00:03:33;9.00;99.90
44037;DHT22;62488;-37.670;-63.532;2022-08-03T00:06:00;9.10;99.90
44037;DHT22;62488;-37.670;-63.532;2022-08-03T00:08:27;9.10;99.90
44037;DHT22;62488;-37.670;-63.532;2022-08-03T00:10:54;9.10;99.90
44037;DHT22;62488;-37.670;-63.532;2022-08-03T00:13:21;8.90;99.90
44037;DHT22;62488;-37.670;-63.532;2022-08-03T00:15:48;9.10;99.90
44037;DHT22;62488;-37.670;-63.532;2022-08-03T00:18:15;9.00;99.90
44037;DHT22;62488;-37.670;-63.532;2022-08-03T00:20:42;8.90;99.90
44037;DHT22;62488;-37.670;-63.532;2022-08-03T00:23:10;8.90;99.90
44037;DHT22;62488;-37.670;-63.532;2022-08-03T00:25:37;8.90;99.90
44037;DHT22;62488;-37.670;-63.532;2022-08-03T00:28:05;8.90;99.90
44037;DHT22;62488;-37.670;-63.532;2022-08-03T00:30:33;8.80;99.90
44037;DHT22;62488;-37.670;-63.532;2022-08-03T00:33:00;8.70;99.90
44037;DHT22;62488;-37.670;-63.532;2022-08-03T00:35:28;8.70;99.90
44037;DHT22;62488;-37.670;-63.532;2022-08-03T00:37:56;8.80;99.90
44037;DHT22;62488;-37.670;-63.532;2022-08-03T00:40:24;8.80;99.90
44037;DHT22;62488;-37.670;-63.532;2022-08-03T00:42:55;8.80;99.90
44037;DHT22;62488;-37.670;-63.532;2022-08-03T00:45:28;8.70;99.90
44037;DHT22;62488;-37.670;-63.532;2022-08-03T00:47:57;8.70;99.90
44037;DHT22;62488;-37.670;-63.532;2022-08-03T00:50:26;8.80;99.90
44037;DHT22;62488;-37.670;-63.532;2022-08-03T00:52:55;8.80;99.90
44037;DHT22;62488;-37.670;-63.532;2022-08-03T00:55:22;8.70;99.90
44037;DHT22;62488;-37.670;-63.532;2022-08-03T00:57:50;8.70;99.90
44037;DHT22;62488;-37.670;-63.532;2022-08-03T01:00:23;8.60;99.90
44037;DHT22;62488;-37.670;-63.532;2022-08-03T01:02:51;8.60;99.90
44037;DHT22;62488;-37.670;-63.532;2022-08-03T01:05:22;8.60;99.90
44037;DHT22;62488;-37.670;-63.532;2022-08-03T01:10:36;8.50;99.90
44037;DHT22;62488;-37.670;-63.532;2022-08-03T01:13:40;8.50;99.90
44037;DHT22;62488;-37.670;-63.532;2022-08-03T01:16:32;8.50;99.90
44037;DHT22;62488;-37.670;-63.532;2022-08-03T01:24:58;8.30;99.90
44037;DHT22;62488;-37.670;-63.532;2022-08-03T01:30:08;8.30;99.90
44037;DHT22;62488;-37.670;-63.532;2022-08-03T01:33:04;8.30;99.90
44037;DHT22;62488;-37.670;-63.532;2022-08-03T01:35:35;8.30;99.90
44037;DHT22;62488;-37.670;-63.532;2022-08-03T01:38:13;8.30;99.90
44037;DHT22;62488;-37.670;-63.532;2022-08-03T01:40:43;8.30;99.90
44037;DHT22;62488;-37.670;-63.532;2022-08-03T01:43:16;8.30;99.90
44037;DHT22;62488;-37.670;-63.532;2022-08-03T01:45:45;8.30;99.90
44037;DHT22;62488;-37.670;-63.532;2022-08-03T01:48:15;8.30;99.90
44037;DHT22;62488;-37.670;-63.532;2022-08-03T01:50:44;8.20;99.90
44037;DHT22;62488;-37.670;-63.532;2022-08-03T01:53:16;8.20;99.90
44037;DHT22;62488;-37.670;-63.532;2022-08-03T01:55:48;8.20;99.90
44037;DHT22;62488;-37.670;-63.532;2022-08-03T01:58:18;8.20;99.90
44037;DHT22;62488;-37.670;-63.532;2022-08-03T02:00:49;8.20;99.90
44037;DHT22;62488;-37.670;-63.532;2022-08-03T02:03:18;8.10;99.90
44037;DHT22;62488;-37.670;-63.532;2022-08-03T02:05:47;8.20;99.90
44037;DHT22;62488;-37.670;-63.532;2022-08-03T02:08:15;8.20;99.90
44037;DHT22;62488;-37.670;-63.532;2022-08-03T02:10:44;8.10;99.90
44037;DHT22;62488;-37.670;-63.532;2022-08-03T02:13:14;8.10;99.90
44037;DHT22;62488;-37.670;-63.532;2022-08-03T02:15:42;8.00;99.90
44037;DHT22;62488;-37.670;-63.532;2022-08-03T02:18:10;8.10;99.90
44037;DHT22;62488;-37.670;-63.532;2022-08-03T02:20:41;8.10;99.90
44037;DHT22;62488;-37.670;-63.532;2022-08-03T02:23:09;8.00;99.90
44037;DHT22;62488;-37.670;-63.532;2022-08-03T02:25:49;8.00;99.90
44037;DHT22;62488;-37.670;-63.532;2022-08-03T02:28:24;8.00;99.90
44037;DHT22;62488;-37.670;-63.532;2022-08-03T02:30:54;7.90;99.90
44037;DHT22;62488;-37.670;-63.532;2022-08-03T02:33:33;7.90;99.90
44037;DHT22;62488;-37.670;-63.532;2022-08-03T02:36:03;7.80;99.90
44037;DHT22;62488;-37.670;-63.532;2022-08-03T02:38:36;7.80;99.90
44037;DHT22;62488;-37.670;-63.532;2022-08-03T02:41:08;7.80;99.90
44037;DHT22;62488;-37.670;-63.532;2022-08-03T02:43:39;7.70;99.90
44037;DHT22;62488;-37.670;-63.532;2022-08-03T02:46:10;7.60;99.90
44037;DHT22;62488;-37.670;-63.532;2022-08-03T02:48:41;7.50;99.90
44037;DHT22;62488;-37.670;-63.532;2022-08-03T02:51:09;7.50;99.90
44037;DHT22;62488;-37.670;-63.532;2022-08-03T02:53:36;7.60;99.90
44037;DHT22;62488;-37.670;-63.532;2022-08-03T02:56:05;7.40;99.90
44037;DHT22;62488;-37.670;-63.532;2022-08-03T02:58:33;7.50;99.90
44037;DHT22;62488;-37.670;-63.532;2022-08-03T03:01:01;7.30;99.90
44037;DHT22;62488;-37.670;-63.532;2022-08-03T03:03:28;7.30;99.90
44037;DHT22;62488;-37.670;-63.532;2022-08-03T03:05:56;7.20;99.90
44037;DHT22;62488;-37.670;-63.532;2022-08-03T03:08:24;7.10;99.90
44037;DHT22;62488;-37.670;-63.532;2022-08-03T03:10:54;7.10;99.90
44037;DHT22;62488;-37.670;-63.532;2022-08-03T03:13:21;7.00;99.90
44037;DHT22;62488;-37.670;-63.532;2022-08-03T03:15:51;7.00;99.90
44037;DHT22;62488;-37.670;-63.532;2022-08-03T03:18:18;7.00;99.90
44037;DHT22;62488;-37.670;-63.532;2022-08-03T03:20:46;6.90;99.90
44037;DHT22;62488;-37.670;-63.532;2022-08-03T03:23:14;6.90;99.90
44037;DHT22;62488;-37.670;-63.532;2022-08-03T03:25:41;6.80;99.90
44037;DHT22;62488;-37.670;-63.532;2022-08-03T03:28:10;6.80;99.90
44037;DHT22;62488;-37.670;-63.532;2022-08-03T03:30:37;6.70;99.90
44037;DHT22;62488;-37.670;-63.532;2022-08-03T03:33:04;6.60;99.90
44037;DHT22;62488;-37.670;-63.532;2022-08-03T03:35:32;6.60;99.90
44037;DHT22;62488;-37.670;-63.532;2022-08-03T03:37:59;6.50;99.90
44037;DHT22;62488;-37.670;-63.532;2022-08-03T03:40:26;6.40;99.90
44037;DHT22;62488;-37.670;-63.532;2022-08-03T03:42:54;6.40;99.90
44037;DHT22;62488;-37.670;-63.532;2022-08-03T03:45:21;6.50;99.90
44037;DHT22;62488;-37.670;-63.532;2022-08-03T03:47:49;6.50;99.90
44037;DHT22;62488;-37.670;-63.532;2022-08-03T03:50:17;6.50;99.90
44037;DHT22;62488;-37.670;-63.532;2022-08-03T03:52:45;6.40;99.90
44037;DHT22;62488;-37.670;-63.532;2022-08-03T03:55:15;6.30;99.90
44037;DHT22;62488;-37.670;-63.532;2022-08-03T03:57:43;6.30;99.90
44037;DHT22;62488;-37.670;-63.532;2022-08-03T04:00:12;6.30;99.90
44037;DHT22;62488;-37.670;-63.532;2022-08-03T04:02:39;6.30;99.90
44037;DHT22;62488;-37.670;-63.532;2022-08-03T04:05:07;6.20;99.90
44037;DHT22;62488;-37.670;-63.532;2022-08-03T04:08:13;6.20;99.90
44037;DHT22;62488;-37.670;-63.532;2022-08-03T04:11:19;6.10;99.90
44037;DHT22;62488;-37.670;-63.532;2022-08-03T04:13:58;6.20;99.90
44037;DHT22;62488;-37.670;-63.532;2022-08-03T04:16:33;6.20;99.90
44037;DHT22;62488;-37.670;-63.532;2022-08-03T04:19:08;6.10;99.90
44037;DHT22;62488;-37.670;-63.532;2022-08-03T04:21:40;6.20;99.90
44037;DHT22;62488;-37.670;-63.532;2022-08-03T04:24:09;6.20;99.90
44037;DHT22;62488;-37.670;-63.532;2022-08-03T04:26:41;6.40;99.90
44037;DHT22;62488;-37.670;-63.532;2022-08-03T04:29:09;6.40;99.90
44037;DHT22;62488;-37.670;-63.532;2022-08-03T04:31:39;6.30;99.90
44037;DHT22;62488;-37.670;-63.532;2022-08-03T04:34:07;6.20;99.90
44037;DHT22;62488;-37.670;-63.532;2022-08-03T04:36:47;6.20;99.90
44037;DHT22;62488;-37.670;-63.532;2022-08-03T04:39:34;6.20;99.90
44037;DHT22;62488;-37.670;-63.532;2022-08-03T04:42:05;6.10;99.90
44037;DHT22;62488;-37.670;-63.532;2022-08-03T04:44:38;6.10;99.90
44037;DHT22;62488;-37.670;-63.532;2022-08-03T04:47:06;6.10;99.90
44037;DHT22;62488;-37.670;-63.532;2022-08-03T04:49:35;6.10;99.90
44037;DHT22;62488;-37.670;-63.532;2022-08-03T04:52:03;6.00;99.90
44037;DHT22;62488;-37.670;-63.532;2022-08-03T04:54:36;5.90;99.90
44037;DHT22;62488;-37.670;-63.532;2022-08-03T04:57:05;5.80;99.90
44037;DHT22;62488;-37.670;-63.532;2022-08-03T04:59:32;5.80;99.90
44037;DHT22;62488;-37.670;-63.532;2022-08-03T05:02:00;5.80;99.90
44037;DHT22;62488;-37.670;-63.532;2022-08-03T05:04:27;5.80;99.90
44037;DHT22;62488;-37.670;-63.532;2022-08-03T05:06:54;5.70;99.90
44037;DHT22;62488;-37.670;-63.532;2022-08-03T05:09:21;5.60;99.90
44037;DHT22;62488;-37.670;-63.532;2022-08-03T05:11:48;5.70;99.90
44037;DHT22;62488;-37.670;-63.532;2022-08-03T05:14:15;5.60;99.90
44037;DHT22;62488;-37.670;-63.532;2022-08-03T05:16:42;5.70;99.90
44037;DHT22;62488;-37.670;-63.532;2022-08-03T05:19:09;5.60;99.90
44037;DHT22;62488;-37.670;-63.532;2022-08-03T05:21:36;5.30;99.90
44037;DHT22;62488;-37.670;-63.532;2022-08-03T05:24:03;5.30;99.90
44037;DHT22;62488;-37.670;-63.532;2022-08-03T05:26:30;5.30;99.90
44037;DHT22;62488;-37.670;-63.532;2022-08-03T05:28:57;5.30;99.90
44037;DHT22;62488;-37.670;-63.532;2022-08-03T05:31:24;5.30;99.90
44037;DHT22;62488;-37.670;-63.532;2022-08-03T05:33:51;5.20;99.90
44037;DHT22;62488;-37.670;-63.532;2022-08-03T05:36:18;5.10;99.90
44037;DHT22;62488;-37.670;-63.532;2022-08-03T05:38:45;5.10;99.90
44037;DHT22;62488;-37.670;-63.532;2022-08-03T05:41:12;4.90;99.90
44037;DHT22;62488;-37.670;-63.532;2022-08-03T05:43:39;4.90;99.90
44037;DHT22;62488;-37.670;-63.532;2022-08-03T05:46:06;4.80;99.90
44037;DHT22;62488;-37.670;-63.532;2022-08-03T05:48:34;4.70;99.90
44037;DHT22;62488;-37.670;-63.532;2022-08-03T05:51:01;4.70;99.90
44037;DHT22;62488;-37.670;-63.532;2022-08-03T05:53:32;4.80;99.90
44037;DHT22;62488;-37.670;-63.532;2022-08-03T05:56:00;4.70;99.90
44037;DHT22;62488;-37.670;-63.532;2022-08-03T05:58:27;4.90;99.90
44037;DHT22;62488;-37.670;-63.532;2022-08-03T06:00:54;4.80;99.90
44037;DHT22;62488;-37.670;-63.532;2022-08-03T06:03:21;4.90;99.90
44037;DHT22;62488;-37.670;-63.532;2022-08-03T06:05:48;4.90;99.90
44037;DHT22;62488;-37.670;-63.532;2022-08-03T06:08:15;4.90;99.90
44037;DHT22;62488;-37.670;-63.532;2022-08-03T06:10:42;5.10;99.90
44037;DHT22;62488;-37.670;-63.532;2022-08-03T06:13:09;5.10;99.90
44037;DHT22;62488;-37.670;-63.532;2022-08-03T06:15:36;5.00;99.90
44037;DHT22;62488;-37.670;-63.532;2022-08-03T06:18:03;5.00;99.90
44037;DHT22;62488;-37.670;-63.532;2022-08-03T06:20:31;5.00;99.90
44037;DHT22;62488;-37.670;-63.532;2022-08-03T06:22:58;5.00;99.90
44037;DHT22;62488;-37.670;-63.532;2022-08-03T06:25:26;4.80;99.90
44037;DHT22;62488;-37.670;-63.532;2022-08-03T06:27:53;4.80;99.90
44037;DHT22;62488;-37.670;-63.532;2022-08-03T06:30:20;4.70;99.90
44037;DHT22;62488;-37.670;-63.532;2022-08-03T06:32:47;4.80;99.90
44037;DHT22;62488;-37.670;-63.532;2022-08-03T06:35:14;4.80;99.90
44037;DHT22;62488;-37.670;-63.532;2022-08-03T06:40:14;4.80;99.90
44037;DHT22;62488;-37.670;-63.532;2022-08-03T06:42:42;4.70;99.90
44037;DHT22;62488;-37.670;-63.532;2022-08-03T06:45:10;4.70;99.90
44037;DHT22;62488;-37.670;-63.532;2022-08-03T06:47:38;4.70;99.90
44037;DHT22;62488;-37.670;-63.532;2022-08-03T06:50:07;4.70;99.90
44037;DHT22;62488;-37.670;-63.532;2022-08-03T06:52:34;4.60;99.90
44037;DHT22;62488;-37.670;-63.532;2022-08-03T06:55:01;4.60;99.90
44037;DHT22;62488;-37.670;-63.532;2022-08-03T06:57:28;4.60;99.90
44037;DHT22;62488;-37.670;-63.532;2022-08-03T06:59:55;4.60;99.90
44037;DHT22;62488;-37.670;-63.532;2022-08-03T07:02:27;4.60;99.90
44037;DHT22;62488;-37.670;-63.532;2022-08-03T07:04:55;4.50;99.90
44037;DHT22;62488;-37.670;-63.532;2022-08-03T07:07:22;4.30;99.90
44037;DHT22;62488;-37.670;-63.532;2022-08-03T07:09:49;4.50;99.90
44037;DHT22;62488;-37.670;-63.532;2022-08-03T07:12:16;4.40;99.90
44037;DHT22;62488;-37.670;-63.532;2022-08-03T07:14:43;4.40;99.90
44037;DHT22;62488;-37.670;-63.532;2022-08-03T07:17:10;4.30;99.90
44037;DHT22;62488;-37.670;-63.532;2022-08-03T07:19:37;4.30;99.90
44037;DHT22;62488;-37.670;-63.532;2022-08-03T07:22:04;4.20;99.90
44037;DHT22;62488;-37.670;-63.532;2022-08-03T07:24:31;4.20;99.90
44037;DHT22;62488;-37.670;-63.532;2022-08-03T07:26:58;4.30;99.90
44037;DHT22;62488;-37.670;-63.532;2022-08-03T07:29:26;4.50;99.90
44037;DHT22;62488;-37.670;-63.532;2022-08-03T07:31:53;4.50;99.90
44037;DHT22;62488;-37.670;-63.532;2022-08-03T07:34:20;4.60;99.90
44037;DHT22;62488;-37.670;-63.532;2022-08-03T07:36:47;4.70;99.90
44037;DHT22;62488;-37.670;-63.532;2022-08-03T07:39:13;4.70;99.90
44037;DHT22;62488;-37.670;-63.532;2022-08-03T07:41:40;4.50;99.90
44037;DHT22;62488;-37.670;-63.532;2022-08-03T07:44:07;4.40;99.90
44037;DHT22;62488;-37.670;-63.532;2022-08-03T07:46:34;4.10;99.90
44037;DHT22;62488;-37.670;-63.532;2022-08-03T07:49:02;4.00;99.90
44037;DHT22;62488;-37.670;-63.532;2022-08-03T07:51:29;4.00;99.90
44037;DHT22;62488;-37.670;-63.532;2022-08-03T07:53:56;3.90;99.90
44037;DHT22;62488;-37.670;-63.532;2022-08-03T07:56:23;3.80;99.90
44037;DHT22;62488;-37.670;-63.532;2022-08-03T07:58:54;3.80;99.90
44037;DHT22;62488;-37.670;-63.532;2022-08-03T08:01:21;3.70;99.90
44037;DHT22;62488;-37.670;-63.532;2022-08-03T08:03:49;3.80;99.90
44037;DHT22;62488;-37.670;-63.532;2022-08-03T08:06:17;3.80;99.90
44037;DHT22;62488;-37.670;-63.532;2022-08-03T08:08:44;3.60;99.90
44037;DHT22;62488;-37.670;-63.532;2022-08-03T08:11:11;3.30;99.90
44037;DHT22;62488;-37.670;-63.532;2022-08-03T08:13:38;3.00;99.90
44037;DHT22;62488;-37.670;-63.532;2022-08-03T08:16:05;2.90;99.90
44037;DHT22;62488;-37.670;-63.532;2022-08-03T08:18:32;2.70;99.90
44037;DHT22;62488;-37.670;-63.532;2022-08-03T08:21:00;2.60;99.90
44037;DHT22;62488;-37.670;-63.532;2022-08-03T08:23:28;2.60;99.90
44037;DHT22;62488;-37.670;-63.532;2022-08-03T08:25:55;2.50;99.90
44037;DHT22;62488;-37.670;-63.532;2022-08-03T08:28:22;2.70;99.90
44037;DHT22;62488;-37.670;-63.532;2022-08-03T08:30:49;2.70;99.90
44037;DHT22;62488;-37.670;-63.532;2022-08-03T08:33:16;2.90;99.90
44037;DHT22;62488;-37.670;-63.532;2022-08-03T08:35:43;2.90;99.90
44037;DHT22;62488;-37.670;-63.532;2022-08-03T08:38:11;3.10;99.90
44037;DHT22;62488;-37.670;-63.532;2022-08-03T08:40:38;3.10;99.90
44037;DHT22;62488;-37.670;-63.532;2022-08-03T08:43:06;3.30;99.90
44037;DHT22;62488;-37.670;-63.532;2022-08-03T08:45:33;3.30;99.90
44037;DHT22;62488;-37.670;-63.532;2022-08-03T08:48:02;3.40;99.90
44037;DHT22;62488;-37.670;-63.532;2022-08-03T08:50:29;3.40;99.90
44037;DHT22;62488;-37.670;-63.532;2022-08-03T08:53:01;3.50;99.90
44037;DHT22;62488;-37.670;-63.532;2022-08-03T08:55:29;3.50;99.90
44037;DHT22;62488;-37.670;-63.532;2022-08-03T08:58:00;3.60;99.90
44037;DHT22;62488;-37.670;-63.532;2022-08-03T09:00:29;3.60;99.90
44037;DHT22;62488;-37.670;-63.532;2022-08-03T09:02:56;3.60;99.90
44037;DHT22;62488;-37.670;-63.532;2022-08-03T09:05:24;3.70;99.90
44037;DHT22;62488;-37.670;-63.532;2022-08-03T09:07:51;3.80;99.90
44037;DHT22;62488;-37.670;-63.532;2022-08-03T09:10:19;3.80;99.90
44037;DHT22;62488;-37.670;-63.532;2022-08-03T09:12:51;3.80;99.90
44037;DHT22;62488;-37.670;-63.532;2022-08-03T09:15:30;3.70;99.90
44037;DHT22;62488;-37.670;-63.532;2022-08-03T09:17:59;3.80;99.90
44037;DHT22;62488;-37.670;-63.532;2022-08-03T09:20:28;3.70;99.90
44037;DHT22;62488;-37.670;-63.532;2022-08-03T09:23:00;3.70;99.90
44037;DHT22;62488;-37.670;-63.532;2022-08-03T09:25:37;3.70;99.90
44037;DHT22;62488;-37.670;-63.532;2022-08-03T09:28:15;3.60;99.90
44037;DHT22;62488;-37.670;-63.532;2022-08-03T09:30:45;3.50;99.90
44037;DHT22;62488;-37.670;-63.532;2022-08-03T09:33:23;3.50;99.90
44037;DHT22;62488;-37.670;-63.532;2022-08-03T09:35:50;3.50;99.90
44037;DHT22;62488;-37.670;-63.532;2022-08-03T09:38:20;3.60;99.90
44037;DHT22;62488;-37.670;-63.532;2022-08-03T09:40:53;3.50;99.90
44037;DHT22;62488;-37.670;-63.532;2022-08-03T09:43:21;3.50;99.90
44037;DHT22;62488;-37.670;-63.532;2022-08-03T09:45:50;3.50;99.90
44037;DHT22;62488;-37.670;-63.532;2022-08-03T09:48:29;3.50;99.90
44037;DHT22;62488;-37.670;-63.532;2022-08-03T09:50:59;3.40;99.90
44037;DHT22;62488;-37.670;-63.532;2022-08-03T09:53:26;3.40;99.90
44037;DHT22;62488;-37.670;-63.532;2022-08-03T09:55:58;3.30;99.90
44037;DHT22;62488;-37.670;-63.532;2022-08-03T09:58:29;3.20;99.90
44037;DHT22;62488;-37.670;-63.532;2022-08-03T10:01:01;3.20;99.90
44037;DHT22;62488;-37.670;-63.532;2022-08-03T10:03:36;3.10;99.90
44037;DHT22;62488;-37.670;-63.532;2022-08-03T10:06:18;3.10;99.90
44037;DHT22;62488;-37.670;-63.532;2022-08-03T10:08:45;2.90;99.90
44037;DHT22;62488;-37.670;-63.532;2022-08-03T10:11:28;2.90;99.90
44037;DHT22;62488;-37.670;-63.532;2022-08-03T10:13:55;2.80;99.90
44037;DHT22;62488;-37.670;-63.532;2022-08-03T10:16:23;2.70;99.90
44037;DHT22;62488;-37.670;-63.532;2022-08-03T10:18:50;2.70;99.90
44037;DHT22;62488;-37.670;-63.532;2022-08-03T10:21:19;2.70;99.90
44037;DHT22;62488;-37.670;-63.532;2022-08-03T10:23:47;2.80;99.90
44037;DHT22;62488;-37.670;-63.532;2022-08-03T10:26:18;2.80;99.90
44037;DHT22;62488;-37.670;-63.532;2022-08-03T10:28:49;2.70;99.90
44037;DHT22;62488;-37.670;-63.532;2022-08-03T10:31:20;2.70;99.90
44037;DHT22;62488;-37.670;-63.532;2022-08-03T10:33:50;2.70;99.90
44037;DHT22;62488;-37.670;-63.532;2022-08-03T10:36:23;2.60;99.90
44037;DHT22;62488;-37.670;-63.532;2022-08-03T10:38:51;2.60;99.90
44037;DHT22;62488;-37.670;-63.532;2022-08-03T10:41:30;2.50;99.90
44037;DHT22;62488;-37.670;-63.532;2022-08-03T10:44:10;2.60;99.90
44037;DHT22;62488;-37.670;-63.532;2022-08-03T10:46:39;2.60;99.90
44037;DHT22;62488;-37.670;-63.532;2022-08-03T10:49:07;2.70;99.90
44037;DHT22;62488;-37.670;-63.532;2022-08-03T10:51:38;2.70;99.90
44037;DHT22;62488;-37.670;-63.532;2022-08-03T10:54:05;3.00;99.90
44037;DHT22;62488;-37.670;-63.532;2022-08-03T10:59:19;2.90;99.90
44037;DHT22;62488;-37.670;-63.532;2022-08-03T11:02:05;2.90;99.90
44037;DHT22;62488;-37.670;-63.532;2022-08-03T11:04:36;3.10;99.90
44037;DHT22;62488;-37.670;-63.532;2022-08-03T11:09:50;2.90;99.90
44037;DHT22;62488;-37.670;-63.532;2022-08-03T11:12:29;2.80;99.90
44037;DHT22;62488;-37.670;-63.532;2022-08-03T11:15:05;2.90;99.90
44037;DHT22;62488;-37.670;-63.532;2022-08-03T11:17:36;2.80;99.90
44037;DHT22;62488;-37.670;-63.532;2022-08-03T11:20:04;2.80;99.90
44037;DHT22;62488;-37.670;-63.532;2022-08-03T11:22:57;3.00;99.90
44037;DHT22;62488;-37.670;-63.532;2022-08-03T11:25:26;3.00;99.90
44037;DHT22;62488;-37.670;-63.532;2022-08-03T11:28:26;2.90;99.90
44037;DHT22;62488;-37.670;-63.532;2022-08-03T11:30:55;3.00;99.90
44037;DHT22;62488;-37.670;-63.532;2022-08-03T11:33:30;3.00;99.90
44037;DHT22;62488;-37.670;-63.532;2022-08-03T11:36:01;3.00;99.90
44037;DHT22;62488;-37.670;-63.532;2022-08-03T11:38:29;3.00;99.90
44037;DHT22;62488;-37.670;-63.532;2022-08-03T11:40:56;3.00;99.90
44037;DHT22;62488;-37.670;-63.532;2022-08-03T11:46:11;3.10;99.90
44037;DHT22;62488;-37.670;-63.532;2022-08-03T11:48:49;3.00;99.90
44037;DHT22;62488;-37.670;-63.532;2022-08-03T11:51:28;3.00;99.90
44037;DHT22;62488;-37.670;-63.532;2022-08-03T11:56:26;2.90;99.90
44037;DHT22;62488;-37.670;-63.532;2022-08-03T11:58:55;2.90;99.90
44037;DHT22;62488;-37.670;-63.532;2022-08-03T12:01:24;2.80;99.90
44037;DHT22;62488;-37.670;-63.532;2022-08-03T12:03:54;2.70;99.90
44037;DHT22;62488;-37.670;-63.532;2022-08-03T12:06:29;2.80;99.90
44037;DHT22;62488;-37.670;-63.532;2022-08-03T12:09:18;2.70;99.90
44037;DHT22;62488;-37.670;-63.532;2022-08-03T12:11:48;2.70;99.90
44037;DHT22;62488;-37.670;-63.532;2022-08-03T12:14:19;2.80;99.90
44037;DHT22;62488;-37.670;-63.532;2022-08-03T12:16:47;2.70;99.90
44037;DHT22;62488;-37.670;-63.532;2022-08-03T12:19:15;2.70;99.90
44037;DHT22;62488;-37.670;-63.532;2022-08-03T12:21:49;2.80;99.90
44037;DHT22;62488;-37.670;-63.532;2022-08-03T12:24:16;2.80;99.90
44037;DHT22;62488;-37.670;-63.532;2022-08-03T12:26:46;2.90;99.90
44037;DHT22;62488;-37.670;-63.532;2022-08-03T12:29:22;3.00;99.90
44037;DHT22;62488;-37.670;-63.532;2022-08-03T12:31:51;3.20;99.90
44037;DHT22;62488;-37.670;-63.532;2022-08-03T12:34:18;3.10;99.90
44037;DHT22;62488;-37.670;-63.532;2022-08-03T12:36:55;3.00;99.90
44037;DHT22;62488;-37.670;-63.532;2022-08-03T12:39:25;3.10;99.90
44037;DHT22;62488;-37.670;-63.532;2022-08-03T12:41:54;3.10;99.90
44037;DHT22;62488;-37.670;-63.532;2022-08-03T12:44:32;3.30;99.90
44037;DHT22;62488;-37.670;-63.532;2022-08-03T12:47:02;3.30;99.90
44037;DHT22;62488;-37.670;-63.532;2022-08-03T12:49:49;3.40;99.90
44037;DHT22;62488;-37.670;-63.532;2022-08-03T12:52:17;3.40;99.90
44037;DHT22;62488;-37.670;-63.532;2022-08-03T12:55:17;3.50;99.90
44037;DHT22;62488;-37.670;-63.532;2022-08-03T12:57:44;3.80;99.90
44037;DHT22;62488;-37.670;-63.532;2022-08-03T13:00:13;3.90;99.90
44037;DHT22;62488;-37.670;-63.532;2022-08-03T13:02:40;4.10;99.90
44037;DHT22;62488;-37.670;-63.532;2022-08-03T13:05:13;4.40;99.90
44037;DHT22;62488;-37.670;-63.532;2022-08-03T13:07:41;4.30;99.90
44037;DHT22;62488;-37.670;-63.532;2022-08-03T13:10:28;4.20;99.90
44037;DHT22;62488;-37.670;-63.532;2022-08-03T13:12:58;4.20;99.90
44037;DHT22;62488;-37.670;-63.532;2022-08-03T13:15:26;4.00;99.90
44037;DHT22;62488;-37.670;-63.532;2022-08-03T13:17:57;4.50;99.90
44037;DHT22;62488;-37.670;-63.532;2022-08-03T13:20:24;4.40;99.90
44037;DHT22;62488;-37.670;-63.532;2022-08-03T13:22:51;4.20;99.90
44037;DHT22;62488;-37.670;-63.532;2022-08-03T13:25:18;4.30;99.90
44037;DHT22;62488;-37.670;-63.532;2022-08-03T13:27:46;4.30;99.90
44037;DHT22;62488;-37.670;-63.532;2022-08-03T13:30:14;4.40;99.90
44037;DHT22;62488;-37.670;-63.532;2022-08-03T13:32:42;4.80;99.90
44037;DHT22;62488;-37.670;-63.532;2022-08-03T13:35:10;4.60;99.90
44037;DHT22;62488;-37.670;-63.532;2022-08-03T13:37:40;4.60;99.90
44037;DHT22;62488;-37.670;-63.532;2022-08-03T13:40:07;4.40;99.90
44037;DHT22;62488;-37.670;-63.532;2022-08-03T13:42:36;4.80;99.90
44037;DHT22;62488;-37.670;-63.532;2022-08-03T13:45:04;5.10;99.90
44037;DHT22;62488;-37.670;-63.532;2022-08-03T13:47:31;4.90;99.90
44037;DHT22;62488;-37.670;-63.532;2022-08-03T13:49:59;4.90;99.90
44037;DHT22;62488;-37.670;-63.532;2022-08-03T13:52:26;4.80;99.90
44037;DHT22;62488;-37.670;-63.532;2022-08-03T13:54:53;5.00;99.90
44037;DHT22;62488;-37.670;-63.532;2022-08-03T13:57:20;5.20;99.90
44037;DHT22;62488;-37.670;-63.532;2022-08-03T13:59:47;5.10;99.90
44037;DHT22;62488;-37.670;-63.532;2022-08-03T14:02:16;5.00;99.90
44037;DHT22;62488;-37.670;-63.532;2022-08-03T14:04:43;4.90;99.90
44037;DHT22;62488;-37.670;-63.532;2022-08-03T14:07:10;5.20;99.90
44037;DHT22;62488;-37.670;-63.532;2022-08-03T14:09:39;5.20;99.90
44037;DHT22;62488;-37.670;-63.532;2022-08-03T14:12:10;5.30;99.90
44037;DHT22;62488;-37.670;-63.532;2022-08-03T14:14:37;5.50;99.90
44037;DHT22;62488;-37.670;-63.532;2022-08-03T14:17:04;5.60;99.90
44037;DHT22;62488;-37.670;-63.532;2022-08-03T14:19:31;5.90;99.90
44037;DHT22;62488;-37.670;-63.532;2022-08-03T14:21:58;6.20;99.90
44037;DHT22;62488;-37.670;-63.532;2022-08-03T14:24:25;6.40;99.90
44037;DHT22;62488;-37.670;-63.532;2022-08-03T14:26:52;6.50;99.90
44037;DHT22;62488;-37.670;-63.532;2022-08-03T14:29:19;6.90;99.90
44037;DHT22;62488;-37.670;-63.532;2022-08-03T14:31:46;6.70;99.90
44037;DHT22;62488;-37.670;-63.532;2022-08-03T14:34:13;6.80;99.90
44037;DHT22;62488;-37.670;-63.532;2022-08-03T14:36:40;7.20;99.90
44037;DHT22;62488;-37.670;-63.532;2022-08-03T14:39:07;8.40;99.90
44037;DHT22;62488;-37.670;-63.532;2022-08-03T14:41:35;9.30;99.90
44037;DHT22;62488;-37.670;-63.532;2022-08-03T14:44:02;10.20;99.90
44037;DHT22;62488;-37.670;-63.532;2022-08-03T14:46:31;9.80;99.90
44037;DHT22;62488;-37.670;-63.532;2022-08-03T14:48:58;10.40;99.90
44037;DHT22;62488;-37.670;-63.532;2022-08-03T14:51:25;10.80;99.90
44037;DHT22;62488;-37.670;-63.532;2022-08-03T14:53:53;11.10;99.90
44037;DHT22;62488;-37.670;-63.532;2022-08-03T14:56:20;10.60;99.90
44037;DHT22;62488;-37.670;-63.532;2022-08-03T14:58:47;10.70;99.90
44037;DHT22;62488;-37.670;-63.532;2022-08-03T15:01:14;10.90;99.90
44037;DHT22;62488;-37.670;-63.532;2022-08-03T15:03:41;11.60;99.90
44037;DHT22;62488;-37.670;-63.532;2022-08-03T15:06:09;12.00;99.90
44037;DHT22;62488;-37.670;-63.532;2022-08-03T15:08:36;11.50;99.90
44037;DHT22;62488;-37.670;-63.532;2022-08-03T15:11:03;11.10;99.90
44037;DHT22;62488;-37.670;-63.532;2022-08-03T15:13:30;12.10;99.90
44037;DHT22;62488;-37.670;-63.532;2022-08-03T15:15:57;12.30;99.90
44037;DHT22;62488;-37.670;-63.532;2022-08-03T15:18:24;12.40;99.90
44037;DHT22;62488;-37.670;-63.532;2022-08-03T15:20:51;12.60;99.90
44037;DHT22;62488;-37.670;-63.532;2022-08-03T15:23:18;12.20;99.90
44037;DHT22;62488;-37.670;-63.532;2022-08-03T15:25:46;12.70;99.90
44037;DHT22;62488;-37.670;-63.532;2022-08-03T15:28:13;13.00;99.90
44037;DHT22;62488;-37.670;-63.532;2022-08-03T15:30:40;12.60;99.90
44037;DHT22;62488;-37.670;-63.532;2022-08-03T15:33:07;12.60;99.90
44037;DHT22;62488;-37.670;-63.532;2022-08-03T15:35:34;12.80;99.90
44037;DHT22;62488;-37.670;-63.532;2022-08-03T15:38:02;12.60;99.90
44037;DHT22;62488;-37.670;-63.532;2022-08-03T15:40:29;13.10;99.90